createdAt,value
2018-03-28T00:00:10.177Z,79.88
2018-03-28T00:02:37.760Z,80.23
2018-03-28T00:05:05.412Z,79.75
2018-03-28T00:07:33.043Z,79.39
2018-03-28T00:10:00.671Z,80.62
2018-03-28T00:12:28.276Z,81.30
2018-03-28T00:14:55.873Z,81.33
2018-03-28T00:17:23.467Z,81.36
2018-03-28T00:19:51.099Z,81.79
2018-03-28T00:22:18.783Z,81.31
2018-03-28T00:24:46.462Z,81.21
2018-03-28T00:27:14.090Z,81.21
2018-03-28T00:29:41.684Z,81.59
2018-03-28T00:32:09.749Z,82.10
2018-03-28T00:34:37.768Z,82.26
2018-03-28T00:37:06.600Z,81.78
2018-03-28T00:39:34.415Z,81.62
2018-03-28T00:42:02.007Z,80.39
2018-03-28T00:44:29.628Z,80.61
2018-03-28T00:46:57.298Z,80.89
2018-03-28T00:49:24.890Z,76.88
2018-03-28T00:51:52.490Z,72.40
2018-03-28T00:54:20.079Z,73.42
2018-03-28T00:56:47.682Z,76.26
2018-03-28T00:59:15.278Z,75.95
2018-03-28T01:01:42.867Z,77.34
2018-03-28T01:04:10.498Z,77.68
2018-03-28T01:06:38.116Z,77.75
2018-03-28T01:09:05.747Z,78.39
2018-03-28T01:11:33.388Z,78.75
2018-03-28T01:14:01.068Z,78.31
2018-03-28T01:16:28.695Z,79.11
2018-03-28T01:18:56.279Z,79.47
2018-03-28T01:21:23.907Z,79.25
2018-03-28T01:23:51.507Z,79.60
2018-03-28T01:26:19.136Z,79.73
2018-03-28T01:28:46.758Z,78.92
2018-03-28T01:31:14.342Z,78.54
2018-03-28T01:33:41.952Z,79.70
2018-03-28T01:36:09.538Z,79.52
2018-03-28T01:38:37.182Z,77.82
2018-03-28T01:41:04.778Z,77.86
2018-03-28T01:43:32.391Z,78.77
2018-03-28T01:46:00.051Z,80.09
2018-03-28T01:48:27.644Z,80.13
2018-03-28T01:50:55.268Z,80.49
2018-03-28T01:53:22.866Z,81.03
2018-03-28T01:55:50.463Z,81.06
2018-03-28T01:58:18.100Z,80.87
2018-03-28T02:00:45.693Z,80.49
2018-03-28T02:03:13.272Z,79.45
2018-03-28T02:05:40.877Z,80.34
2018-03-28T02:08:08.489Z,77.51
2018-03-28T02:10:36.130Z,69.93
2018-03-28T02:13:03.734Z,69.33
2018-03-28T02:15:31.328Z,69.74
2018-03-28T02:17:58.951Z,68.75
2018-03-28T02:20:26.587Z,67.99
2018-03-28T02:22:54.619Z,67.28
2018-03-28T02:25:22.327Z,67.54
2018-03-28T02:27:49.939Z,69.15
2018-03-28T02:30:17.518Z,68.62
2018-03-28T02:32:45.190Z,65.63
2018-03-28T02:35:12.784Z,65.29
2018-03-28T02:37:40.462Z,65.44
2018-03-28T02:40:08.787Z,64.65
2018-03-28T02:42:36.543Z,68.02
2018-03-28T02:45:04.221Z,68.06
2018-03-28T02:47:31.806Z,65.60
2018-03-28T02:49:59.544Z,64.85
2018-03-28T02:52:27.155Z,64.85
2018-03-28T02:54:54.747Z,64.75
2018-03-28T02:57:22.520Z,64.14
2018-03-28T02:59:50.143Z,64.38
2018-03-28T03:02:17.727Z,63.79
2018-03-28T03:04:45.326Z,64.04
2018-03-28T03:07:12.923Z,64.05
2018-03-28T03:09:40.585Z,63.42
2018-03-28T03:12:08.182Z,65.25
2018-03-28T03:14:35.794Z,63.51
2018-03-28T03:17:03.420Z,64.34
2018-03-28T03:19:31.022Z,65.04
2018-03-28T03:21:58.611Z,66.77
2018-03-28T03:24:26.234Z,66.78
2018-03-28T03:26:53.923Z,66.49
2018-03-28T03:29:21.514Z,66.36
2018-03-28T03:31:49.160Z,67.14
2018-03-28T03:34:16.746Z,66.05
2018-03-28T03:36:44.413Z,66.23
2018-03-28T03:39:12.056Z,66.48
2018-03-28T03:41:39.675Z,66.52
2018-03-28T03:44:07.259Z,66.24
2018-03-28T03:46:34.875Z,66.37
2018-03-28T03:49:02.470Z,66.13
2018-03-28T03:51:30.065Z,67.05
2018-03-28T03:53:57.655Z,66.72
2018-03-28T03:56:25.284Z,67.31
2018-03-28T03:58:52.919Z,66.43
2018-03-28T04:01:20.559Z,66.98
2018-03-28T04:03:48.147Z,67.15
2018-03-28T04:06:15.772Z,69.94
2018-03-28T04:08:43.363Z,67.36
2018-03-28T04:11:10.951Z,68.59
2018-03-28T04:13:38.546Z,68.16
2018-03-28T04:16:06.154Z,68.65
2018-03-28T04:18:33.815Z,69.03
2018-03-28T04:21:01.435Z,69.43
2018-03-28T04:23:29.019Z,69.91
2018-03-28T04:25:56.609Z,69.88
2018-03-28T04:28:24.194Z,69.59
2018-03-28T04:30:51.798Z,70.91
2018-03-28T04:33:19.395Z,70.21
2018-03-28T04:35:47.024Z,68.53
2018-03-28T04:38:14.615Z,70.46
2018-03-28T04:40:43.987Z,69.81
2018-03-28T04:43:11.602Z,69.33
2018-03-28T04:45:39.183Z,69.30
2018-03-28T04:48:06.871Z,69.83
2018-03-28T04:50:34.455Z,70.00
2018-03-28T04:53:02.078Z,69.05
2018-03-28T04:55:29.687Z,69.61
2018-03-28T04:57:57.298Z,68.73
2018-03-28T05:00:24.890Z,69.91
2018-03-28T05:02:52.482Z,69.17
2018-03-28T05:05:20.140Z,69.70
2018-03-28T05:07:48.873Z,70.51
2018-03-28T05:10:16.495Z,69.47
2018-03-28T05:12:44.153Z,70.00
2018-03-28T05:15:11.783Z,70.29
2018-03-28T05:17:39.394Z,69.21
2018-03-28T05:20:07.076Z,69.41
2018-03-28T05:22:34.772Z,70.28
2018-03-28T05:25:02.307Z,69.84
2018-03-28T05:27:29.987Z,70.74
2018-03-28T05:29:57.598Z,70.75
2018-03-28T05:32:25.206Z,71.08
2018-03-28T05:34:52.809Z,72.76
2018-03-28T05:37:20.417Z,71.24
2018-03-28T05:39:48.038Z,70.90
2018-03-28T05:42:15.686Z,71.08
2018-03-28T05:44:43.363Z,71.51
2018-03-28T05:47:11.039Z,71.06
2018-03-28T05:49:38.626Z,70.67
2018-03-28T05:52:06.267Z,70.50
2018-03-28T05:54:33.899Z,71.53
2018-03-28T05:57:01.499Z,70.56
2018-03-28T05:59:29.166Z,70.55
2018-03-28T06:01:56.811Z,70.16
2018-03-28T06:04:25.062Z,71.87
2018-03-28T06:06:52.682Z,70.18
2018-03-28T06:09:20.298Z,70.53
2018-03-28T06:11:47.910Z,69.65
2018-03-28T06:14:15.505Z,69.69
2018-03-28T06:16:43.108Z,68.08
2018-03-28T06:19:10.791Z,68.35
2018-03-28T06:21:38.443Z,68.58
2018-03-28T06:24:06.040Z,69.12
2018-03-28T06:26:33.703Z,68.34
2018-03-28T06:29:01.283Z,68.40
2018-03-28T06:31:28.911Z,69.56
2018-03-28T06:33:56.641Z,69.29
2018-03-28T06:36:24.256Z,69.64
2018-03-28T06:38:51.898Z,68.65
2018-03-28T06:41:20.387Z,69.48
2018-03-28T06:43:48.141Z,69.37
2018-03-28T06:46:15.890Z,69.62
2018-03-28T06:48:43.523Z,69.30
2018-03-28T06:51:11.462Z,70.43
2018-03-28T06:53:39.297Z,71.28
2018-03-28T06:56:06.907Z,70.39
2018-03-28T06:58:34.507Z,69.19
2018-03-28T07:01:02.162Z,68.25
2018-03-28T07:03:29.760Z,67.24
2018-03-28T07:05:57.368Z,67.34
2018-03-28T07:08:25.006Z,68.39
2018-03-28T07:10:52.599Z,68.16
2018-03-28T07:13:20.192Z,66.11
2018-03-28T07:15:47.831Z,65.37
2018-03-28T07:18:15.421Z,65.31
2018-03-28T07:20:43.069Z,63.39
2018-03-28T07:23:10.687Z,63.76
2018-03-28T07:25:38.299Z,64.60
2018-03-28T07:28:05.903Z,64.31
2018-03-28T07:30:33.539Z,62.47
2018-03-28T07:33:01.188Z,63.90
2018-03-28T07:35:28.781Z,61.52
2018-03-28T07:37:56.478Z,61.03
2018-03-28T07:40:24.172Z,60.87
2018-03-28T07:42:51.769Z,59.91
2018-03-28T07:45:19.432Z,59.54
2018-03-28T07:47:47.026Z,59.58
2018-03-28T07:50:14.648Z,61.00
2018-03-28T07:52:42.243Z,61.14
2018-03-28T07:55:09.940Z,62.45
2018-03-28T07:57:38.016Z,62.50
2018-03-28T08:00:05.727Z,61.82
2018-03-28T08:02:33.344Z,61.54
2018-03-28T08:05:00.935Z,61.82
2018-03-28T08:07:28.809Z,63.74
2018-03-28T08:09:57.366Z,61.11
2018-03-28T08:12:24.958Z,62.54
2018-03-28T08:14:52.622Z,60.73
2018-03-28T08:17:20.219Z,59.11
2018-03-28T08:19:47.856Z,58.67
2018-03-28T08:22:15.450Z,57.25
2018-03-28T08:24:43.079Z,59.08
2018-03-28T08:27:10.671Z,60.91
2018-03-28T08:29:38.251Z,57.66
2018-03-28T08:32:05.858Z,53.84
2018-03-28T08:34:33.503Z,52.59
2018-03-28T08:37:01.099Z,53.59
2018-03-28T08:39:28.699Z,51.82
2018-03-28T08:41:56.380Z,53.60
2018-03-28T08:44:23.964Z,53.68
2018-03-28T08:46:51.572Z,49.63
2018-03-28T08:49:19.179Z,49.70
2018-03-28T08:51:46.762Z,49.47
2018-03-28T08:54:14.495Z,49.30
2018-03-28T08:56:42.084Z,49.83
2018-03-28T08:59:09.703Z,48.51
2018-03-28T09:01:37.387Z,45.00
2018-03-28T09:04:04.979Z,48.48
2018-03-28T09:06:32.673Z,46.91
2018-03-28T09:09:00.319Z,46.48
2018-03-28T09:11:27.922Z,51.86
2018-03-28T09:13:55.560Z,53.58
2018-03-28T09:16:23.179Z,54.54
2018-03-28T09:18:50.819Z,54.64
2018-03-28T09:21:18.415Z,53.46
2018-03-28T09:23:46.008Z,53.70
2018-03-28T09:26:13.606Z,52.24
2018-03-28T09:28:41.238Z,50.99
2018-03-28T09:31:08.863Z,50.98
2018-03-28T09:33:36.503Z,50.71
2018-03-28T09:36:04.175Z,51.00
2018-03-28T09:38:31.819Z,50.07
2018-03-28T09:40:59.467Z,49.91
2018-03-28T09:43:27.050Z,49.06
2018-03-28T09:45:54.671Z,49.80
2018-03-28T09:48:22.374Z,49.77
2018-03-28T09:50:49.987Z,48.51
2018-03-28T09:53:17.580Z,48.36
2018-03-28T09:55:45.207Z,49.80
2018-03-28T09:58:13.123Z,50.10
2018-03-28T10:00:40.761Z,46.95
2018-03-28T10:03:13.106Z,46.69
2018-03-28T10:05:40.697Z,47.13
2018-03-28T10:08:08.387Z,46.45
2018-03-28T10:10:35.974Z,46.10
2018-03-28T10:13:03.564Z,46.33
2018-03-28T10:15:31.175Z,46.76
2018-03-28T10:17:58.763Z,45.50
2018-03-28T10:20:26.394Z,44.71
2018-03-28T10:22:53.998Z,45.08
2018-03-28T10:25:21.623Z,44.28
2018-03-28T10:27:49.244Z,43.93
2018-03-28T10:30:16.848Z,44.49
2018-03-28T10:32:44.483Z,44.32
2018-03-28T10:35:12.115Z,44.29
2018-03-28T10:37:39.748Z,42.27
2018-03-28T10:40:07.359Z,43.43
2018-03-28T10:42:35.035Z,42.75
2018-03-28T10:45:02.635Z,43.41
2018-03-28T10:47:30.226Z,43.40
2018-03-28T10:49:57.843Z,43.48
2018-03-28T10:52:25.435Z,41.94
2018-03-28T10:54:53.066Z,40.92
2018-03-28T10:57:20.683Z,41.51
2018-03-28T10:59:48.314Z,40.33
2018-03-28T11:02:15.916Z,40.74
2018-03-28T11:04:43.511Z,39.79
2018-03-28T11:07:11.158Z,42.27
2018-03-28T11:09:38.743Z,39.15
2018-03-28T11:12:06.344Z,39.00
2018-03-28T11:14:33.972Z,38.59
2018-03-28T11:17:01.563Z,36.77
2018-03-28T11:19:29.191Z,36.31
2018-03-28T11:21:56.819Z,35.79
2018-03-28T11:24:24.413Z,35.32
2018-03-28T11:26:52.009Z,35.24
2018-03-28T11:29:19.609Z,36.45
2018-03-28T11:31:47.202Z,37.42
2018-03-28T11:34:14.791Z,36.61
2018-03-28T11:36:42.383Z,36.10
2018-03-28T11:39:09.999Z,38.53
2018-03-28T11:41:37.604Z,40.95
2018-03-28T11:44:05.197Z,42.69
2018-03-28T11:46:32.827Z,43.75
2018-03-28T11:49:00.454Z,44.42
2018-03-28T11:51:28.046Z,46.55
2018-03-28T11:53:55.669Z,48.80
2018-03-28T11:56:23.311Z,50.38
2018-03-28T11:58:51.070Z,53.08
2018-03-28T12:01:18.682Z,53.33
2018-03-28T12:03:46.304Z,52.14
2018-03-28T12:06:13.903Z,52.41
2018-03-28T12:08:41.515Z,54.42
2018-03-28T12:11:09.151Z,56.28
2018-03-28T12:13:36.751Z,55.94
2018-03-28T12:16:04.425Z,56.41
2018-03-28T12:18:32.015Z,58.35
2018-03-28T12:20:59.683Z,55.16
2018-03-28T12:23:27.330Z,54.72
2018-03-28T12:25:55.008Z,55.66
2018-03-28T12:28:27.698Z,55.43
2018-03-28T12:30:55.312Z,56.02
2018-03-28T12:33:22.902Z,55.06
2018-03-28T12:35:50.506Z,56.23
2018-03-28T12:38:18.712Z,55.43
2018-03-28T12:40:46.422Z,53.34
2018-03-28T12:43:14.024Z,53.93
2018-03-28T12:45:41.665Z,54.58
2018-03-28T12:48:09.298Z,53.85
2018-03-28T12:50:39.451Z,52.40
2018-03-28T12:53:07.042Z,51.03
2018-03-28T12:55:34.831Z,50.68
2018-03-28T12:58:02.389Z,49.48
2018-03-28T13:00:30.003Z,49.51
2018-03-28T13:02:57.600Z,47.41
2018-03-28T13:05:25.195Z,48.45
2018-03-28T13:07:52.809Z,49.48
2018-03-28T13:10:20.422Z,49.29
2018-03-28T13:12:48.063Z,51.55
2018-03-28T13:15:15.706Z,53.55
2018-03-28T13:17:43.367Z,54.28
2018-03-28T13:20:10.955Z,55.04
2018-03-28T13:22:38.550Z,55.35
2018-03-28T13:25:06.141Z,55.82
2018-03-28T13:27:33.778Z,55.49
2018-03-28T13:30:01.414Z,56.44
2018-03-28T13:32:28.998Z,55.44
2018-03-28T13:34:56.610Z,55.27
2018-03-28T13:37:24.212Z,54.96
2018-03-28T13:39:51.838Z,54.88
2018-03-28T13:42:19.453Z,54.20
2018-03-28T13:44:47.048Z,54.06
2018-03-28T13:47:14.656Z,53.53
2018-03-28T13:49:42.243Z,54.79
2018-03-28T13:52:09.850Z,56.23
2018-03-28T13:54:37.563Z,55.17
2018-03-28T13:57:05.160Z,55.01
2018-03-28T13:59:32.759Z,55.46
2018-03-28T14:02:00.387Z,55.51
2018-03-28T14:04:27.985Z,55.49
2018-03-28T14:06:55.570Z,55.60
2018-03-28T14:09:23.177Z,56.48
2018-03-28T14:11:50.849Z,55.99
2018-03-28T14:14:18.478Z,56.92
2018-03-28T14:16:46.128Z,57.32
2018-03-28T14:19:13.738Z,58.62
2018-03-28T14:21:41.391Z,59.87
2018-03-28T14:24:08.991Z,59.91
2018-03-28T14:26:36.615Z,60.62
2018-03-28T14:29:04.223Z,60.31
2018-03-28T14:31:31.927Z,61.78
2018-03-28T14:33:59.515Z,62.15
2018-03-28T14:36:27.121Z,61.33
2018-03-28T14:38:54.780Z,60.69
2018-03-28T14:41:22.390Z,60.01
2018-03-28T14:43:49.984Z,57.84
2018-03-28T14:46:17.595Z,57.82
2018-03-28T14:48:45.192Z,58.08
2018-03-28T14:51:12.831Z,57.34
2018-03-28T14:53:40.435Z,58.10
2018-03-28T14:56:08.083Z,57.63
2018-03-28T14:58:35.691Z,58.24
2018-03-28T15:01:03.288Z,57.72
2018-03-28T15:03:30.930Z,59.18
2018-03-28T15:05:58.518Z,59.65
2018-03-28T15:08:26.109Z,59.47
2018-03-28T15:10:53.714Z,59.44
2018-03-28T15:13:21.332Z,59.41
2018-03-28T15:15:48.930Z,60.72
2018-03-28T15:18:16.515Z,59.45
2018-03-28T15:20:44.159Z,59.63
2018-03-28T15:23:11.760Z,61.69
2018-03-28T15:25:39.368Z,61.69
2018-03-28T15:28:07.006Z,61.39
2018-03-28T15:30:34.606Z,62.75
2018-03-28T15:33:02.274Z,62.44
2018-03-28T15:35:29.878Z,62.31
2018-03-28T15:37:57.465Z,63.24
2018-03-28T15:40:25.091Z,63.76
2018-03-28T15:42:52.699Z,64.74
2018-03-28T15:45:20.291Z,64.87
2018-03-28T15:47:47.902Z,64.62
2018-03-28T15:50:15.527Z,65.12
2018-03-28T15:52:43.116Z,65.75
2018-03-28T15:55:10.730Z,65.11
2018-03-28T15:57:38.384Z,65.32
2018-03-28T16:00:06.083Z,65.54
2018-03-28T16:02:33.692Z,66.39
2018-03-28T16:05:01.315Z,67.03
2018-03-28T16:07:28.916Z,67.16
2018-03-28T16:09:56.551Z,67.33
2018-03-28T16:12:24.182Z,66.76
2018-03-28T16:14:51.775Z,66.88
2018-03-28T16:17:19.435Z,66.53
2018-03-28T16:19:47.040Z,66.22
2018-03-28T16:22:14.655Z,66.50
2018-03-28T16:24:42.319Z,66.61
2018-03-28T16:27:09.927Z,65.95
2018-03-28T16:29:37.511Z,65.90
2018-03-28T16:32:05.133Z,65.79
2018-03-28T16:34:47.283Z,66.76
2018-03-28T16:37:14.920Z,66.86
2018-03-28T16:39:42.508Z,67.07
2018-03-28T16:42:10.112Z,67.09
2018-03-28T16:44:37.695Z,67.17
2018-03-28T16:47:05.409Z,68.29
2018-03-28T16:49:32.987Z,68.95
2018-03-28T16:52:00.672Z,69.50
2018-03-28T16:54:28.303Z,69.50
2018-03-28T16:56:55.916Z,69.60
2018-03-28T16:59:23.534Z,69.60
2018-03-28T17:01:51.185Z,69.53
2018-03-28T17:04:18.783Z,69.56
2018-03-28T17:06:46.375Z,70.49
2018-03-28T17:09:13.975Z,70.69
2018-03-28T17:11:41.639Z,70.95
2018-03-28T17:14:09.248Z,71.29
2018-03-28T17:16:36.891Z,71.04
2018-03-28T17:19:04.613Z,71.46
2018-03-28T17:21:32.256Z,72.35
2018-03-28T17:23:59.852Z,71.92
2018-03-28T17:26:27.451Z,72.39
2018-03-28T17:28:55.043Z,72.57
2018-03-28T17:31:22.677Z,72.65
2018-03-28T17:33:50.290Z,72.38
2018-03-28T17:36:18.172Z,72.70
2018-03-28T17:38:45.810Z,72.67
2018-03-28T17:41:13.419Z,72.69
2018-03-28T17:43:41.090Z,72.88
2018-03-28T17:46:08.678Z,73.07
2018-03-28T17:48:36.271Z,73.07
2018-03-28T17:51:03.883Z,73.79
2018-03-28T17:53:31.596Z,73.71
2018-03-28T17:55:59.253Z,74.16
2018-03-28T17:58:26.978Z,73.69
2018-03-28T18:00:54.675Z,72.91
2018-03-28T18:03:22.373Z,72.66
2018-03-28T18:05:50.032Z,72.94
2018-03-28T18:08:17.677Z,73.67
2018-03-28T18:10:45.400Z,74.11
2018-03-28T18:13:13.075Z,74.24
2018-03-28T18:15:40.748Z,74.88
2018-03-28T18:18:08.351Z,75.25
2018-03-28T18:20:36.002Z,75.56
2018-03-28T18:23:03.619Z,75.21
2018-03-28T18:25:32.158Z,75.28
2018-03-28T18:27:59.754Z,75.81
2018-03-28T18:30:27.347Z,75.56
2018-03-28T18:32:54.978Z,75.89
2018-03-28T18:35:22.583Z,76.62
2018-03-28T18:37:50.187Z,76.69
2018-03-28T18:40:17.843Z,76.21
2018-03-28T18:42:45.506Z,75.90
2018-03-28T18:45:13.083Z,75.51
2018-03-28T18:47:40.740Z,76.21
2018-03-28T18:50:08.361Z,76.01
2018-03-28T18:52:36.006Z,75.98
2018-03-28T18:55:03.567Z,75.81
2018-03-28T18:57:31.221Z,76.21
2018-03-28T18:59:58.807Z,76.71
2018-03-28T19:02:26.431Z,76.54
2018-03-28T19:04:54.020Z,76.50
2018-03-28T19:07:21.632Z,76.01
2018-03-28T19:22:44.291Z,78.01
2018-03-28T19:25:11.891Z,77.32
2018-03-28T19:27:39.490Z,76.93
2018-03-28T19:30:07.095Z,76.62
2018-03-28T19:32:34.696Z,76.85
2018-03-28T19:35:02.275Z,76.39
2018-03-28T19:37:29.903Z,77.32
2018-03-28T19:39:57.486Z,77.24
2018-03-28T19:42:25.071Z,78.24
2018-03-28T19:44:52.704Z,78.51
2018-03-28T19:47:20.339Z,79.05
2018-03-28T19:49:47.943Z,79.12
2018-03-28T19:52:15.545Z,79.31
2018-03-28T19:54:43.171Z,79.03
2018-03-28T19:57:10.779Z,79.04
2018-03-28T19:59:38.362Z,79.17
2018-03-28T20:02:06.027Z,79.38
2018-03-28T20:04:33.610Z,79.33
2018-03-28T20:07:01.198Z,79.43
2018-03-28T20:09:28.782Z,80.17
2018-03-28T20:11:56.362Z,80.71
2018-03-28T20:14:23.967Z,80.03
2018-03-28T20:16:51.546Z,79.26
2018-03-28T20:19:19.230Z,80.15
2018-03-28T20:21:46.819Z,81.29
2018-03-28T20:24:14.414Z,81.14
2018-03-28T20:26:44.075Z,81.46
2018-03-28T20:29:11.691Z,80.78
2018-03-28T20:31:39.290Z,81.72
2018-03-28T20:34:06.882Z,82.78
2018-03-28T20:36:34.476Z,83.27
2018-03-28T20:39:02.070Z,83.47
2018-03-28T20:41:29.775Z,83.53
2018-03-28T20:43:57.367Z,82.76
2018-03-28T20:46:24.967Z,83.26
2018-03-28T20:48:53.106Z,83.75
2018-03-28T20:51:20.732Z,83.98
2018-03-28T20:53:48.362Z,83.47
2018-03-28T20:56:16.001Z,83.79
2018-03-28T20:58:43.652Z,84.80
2018-03-28T21:01:11.236Z,85.36
2018-03-28T21:03:38.826Z,85.60
2018-03-28T21:06:06.434Z,85.38
2018-03-28T21:08:34.017Z,84.72
2018-03-28T21:11:01.633Z,85.29
2018-03-28T21:13:29.235Z,84.41
2018-03-28T21:15:56.899Z,84.15
2018-03-28T21:18:24.491Z,83.81
2018-03-28T21:20:52.080Z,83.12
2018-03-28T21:23:19.674Z,83.77
2018-03-28T21:25:47.263Z,84.50
2018-03-28T21:28:14.892Z,83.76
2018-03-28T21:30:42.492Z,83.94
2018-03-28T21:33:10.088Z,84.73
2018-03-28T21:35:37.736Z,84.53
2018-03-28T21:38:05.399Z,84.41
2018-03-28T21:40:33.067Z,84.95
2018-03-28T21:43:00.652Z,85.39
2018-03-28T21:45:28.242Z,85.40
2018-03-28T21:47:55.842Z,85.51
2018-03-28T21:50:23.472Z,85.61
2018-03-28T21:52:51.059Z,85.48
2018-03-28T21:55:18.651Z,86.40
2018-03-28T21:57:46.283Z,87.00
2018-03-28T22:00:13.891Z,86.75
2018-03-28T22:02:41.493Z,86.66
2018-03-28T22:05:09.118Z,87.20
2018-03-28T22:07:36.707Z,87.90
2018-03-28T22:10:04.351Z,88.38
2018-03-28T22:12:31.971Z,87.94
2018-03-28T22:14:59.594Z,87.09
2018-03-28T22:17:27.225Z,86.28
2018-03-28T22:19:54.818Z,86.06
2018-03-28T22:22:22.415Z,85.67
2018-03-28T22:24:50.001Z,85.44
2018-03-28T22:27:17.639Z,85.81
2018-03-28T22:29:45.240Z,84.47
2018-03-28T22:32:12.824Z,84.39
2018-03-28T22:34:40.418Z,85.54
2018-03-28T22:37:08.007Z,85.09
2018-03-28T22:39:35.635Z,84.22
2018-03-28T22:42:03.232Z,85.37
2018-03-28T22:44:30.816Z,86.18
2018-03-28T22:46:58.446Z,86.68
2018-03-28T22:49:26.043Z,86.79
2018-03-28T22:51:53.639Z,86.48
2018-03-28T22:54:21.238Z,86.74
2018-03-28T22:56:48.823Z,86.88
2018-03-28T22:59:16.446Z,86.46
2018-03-28T23:01:44.040Z,86.72
2018-03-28T23:04:11.647Z,86.40
2018-03-28T23:06:39.279Z,86.42
2018-03-28T23:09:06.902Z,84.85
2018-03-28T23:11:34.490Z,85.08
2018-03-28T23:14:02.079Z,85.30
2018-03-28T23:16:29.714Z,84.80
2018-03-28T23:18:57.306Z,84.63
2018-03-28T23:21:24.923Z,84.94
2018-03-28T23:23:52.535Z,85.58
2018-03-28T23:26:20.151Z,86.09
2018-03-28T23:28:47.770Z,86.46
2018-03-28T23:31:15.362Z,86.49
2018-03-28T23:33:43.011Z,87.07
2018-03-28T23:36:10.601Z,87.15
2018-03-28T23:38:38.219Z,87.29
2018-03-28T23:41:05.854Z,87.03
2018-03-28T23:43:33.471Z,86.14
2018-03-28T23:46:01.054Z,85.83
2018-03-28T23:48:28.683Z,87.22
2018-03-28T23:50:56.274Z,88.00
2018-03-28T23:53:25.467Z,87.85
2018-03-28T23:55:53.062Z,87.67
2018-03-28T23:58:20.695Z,88.42
